Time;durP1;ratioP1;P1;durP2;ratioP2;P2;SDS_P1;SDS_P2;PMS_P1;PMS_P2;Temp;Humidity;BMP_temperature;BMP_pressure;BME280_temperature;BME280_humidity;BME280_pressure;Samples;Min_cycle;Max_cycle;Signal;HPM_P1;HPM_P2
2021/06/05 00:00:00;;;;;;;8.65;5.18;;;;;;;14.81;71.15;100170.16;4975108;28;20047;-66
2021/06/05 00:02:32;;;;;;;8.98;5.22;;;;;;;14.81;71.25;100161.56;4973531;28;20046;-66
2021/06/05 00:05:01;;;;;;;9.52;5.32;;;;;;;14.76;71.07;100159.91;4974432;28;20057;-65
2021/06/05 00:07:30;;;;;;;11.25;5.00;;;;;;;14.84;70.91;100151.28;4974525;28;20055;-66
2021/06/05 00:09:59;;;;;;;12.27;5.43;;;;;;;14.99;70.87;100151.13;4973430;28;20078;-66
2021/06/05 00:12:30;;;;;;;7.43;4.67;;;;;;;15.10;69.88;100159.56;4974480;28;20420;-66
2021/06/05 00:15:02;;;;;;;7.50;4.80;;;;;;;15.10;69.47;100156.97;4974532;28;20382;-63
2021/06/05 00:17:31;;;;;;;9.10;5.40;;;;;;;15.01;69.66;100157.09;4973108;28;20055;-63
2021/06/05 00:20:00;;;;;;;6.75;4.40;;;;;;;15.07;69.86;100159.59;4973029;28;20059;-63
2021/06/05 00:22:29;;;;;;;;;;;;;;;15.13;69.78;100154.38;4975513;28;20479;-63
2021/06/05 00:24:58;;;;;;;9.32;4.28;;;;;;;15.02;69.03;100148.53;4973435;28;19926;-63
2021/06/05 00:27:29;;;;;;;10.07;5.28;;;;;;;14.77;69.69;100156.50;4973411;28;20496;-63
2021/06/05 00:29:58;;;;;;;9.13;5.25;;;;;;;14.63;70.51;100152.34;4974316;28;20058;-63
2021/06/05 00:32:27;;;;;;;7.68;5.05;;;;;;;14.56;70.89;100143.84;4975102;28;20039;-63
2021/06/05 00:35:02;;;;;;;8.30;5.15;;;;;;;14.51;71.15;100155.91;4971501;28;20042;-63
2021/06/05 00:37:31;;;;;;;7.05;4.88;;;;;;;14.40;71.14;100149.97;4973150;28;20129;-63
2021/06/05 00:39:59;;;;;;;702.97;66.88;;;;;;;14.37;71.83;100152.56;4971886;28;20508;-66
2021/06/05 00:42:30;;;;;;;7.60;4.55;;;;;;;14.42;71.73;100153.38;4973977;28;20377;-63
2021/06/05 00:45:05;;;;;;;7.95;5.45;;;;;;;14.48;71.60;100153.34;4971912;28;20053;-63
2021/06/05 00:47:35;;;;;;;8.13;4.90;;;;;;;14.39;71.64;100143.16;4975003;28;20562;-64
2021/06/05 00:50:11;;;;;;;8.98;4.53;;;;;;;14.18;72.06;100153.53;4972299;28;20050;-66
2021/06/05 00:52:42;;;;;;;12.27;5.03;;;;;;;14.09;72.09;100148.50;4974927;28;20059;-65
2021/06/05 00:55:21;;;;;;;8.00;5.28;;;;;;;13.99;72.68;100151.97;4972030;28;20504;-63
2021/06/05 00:57:55;;;;;;;8.32;4.18;;;;;;;13.98;72.95;100145.16;4973729;28;20085;-64
2021/06/05 01:00:35;;;;;;;12.18;5.38;;;;;;;14.08;73.03;100142.50;4973371;28;20461;-63
2021/06/05 01:03:06;;;;;;;8.38;5.25;;;;;;;14.22;72.81;100138.97;4970955;28;20512;-64
2021/06/05 01:05:41;;;;;;;9.15;5.20;;;;;;;14.34;72.71;100134.63;4970169;28;20047;-64
2021/06/05 01:08:18;;;;;;;10.15;5.35;;;;;;;14.28;72.45;100126.94;4968286;28;20382;-63
2021/06/05 01:10:55;;;;;;;7.03;4.93;;;;;;;14.16;72.44;100124.47;4972900;28;20473;-63
2021/06/05 01:13:38;;;;;;;8.82;4.95;;;;;;;14.07;72.78;100122.84;4971560;28;20054;-64
2021/06/05 01:16:14;;;;;;;8.23;4.90;;;;;;;14.05;72.87;100121.16;4973450;28;20068;-67
2021/06/05 01:18:51;;;;;;;7.80;5.03;;;;;;;14.02;73.08;100124.59;4970611;28;20504;-66
2021/06/05 01:21:43;;;;;;;10.57;5.45;;;;;;;14.06;73.00;100108.28;4975037;28;20469;-66
2021/06/05 01:24:28;;;;;;;9.82;5.00;;;;;;;14.02;73.05;100116.88;4950360;28;20050;-66
2021/06/05 01:27:06;;;;;;;7.78;4.68;;;;;;;13.94;73.32;100107.56;4976304;28;20050;-65
2021/06/05 01:29:40;;;;;;;9.45;5.35;;;;;;;13.92;73.51;100109.25;4977422;28;20408;-64
2021/06/05 01:32:15;;;;;;;8.02;5.22;;;;;;;13.82;73.49;100102.50;4978384;28;20050;-65
2021/06/05 01:34:48;;;;;;;11.00;4.55;;;;;;;13.64;73.84;100103.47;4974665;28;20062;-65
2021/06/05 01:37:22;;;;;;;13.20;5.30;;;;;;;13.56;74.07;100104.38;4960910;28;20054;-66
2021/06/05 01:40:06;;;;;;;9.88;4.95;;;;;;;13.61;74.26;100103.50;4975282;28;20043;-64
2021/06/05 01:42:41;;;;;;;8.35;5.03;;;;;;;13.69;74.17;100095.75;4977558;28;20046;-66
2021/06/05 01:45:21;;;;;;;11.30;4.95;;;;;;;13.85;74.19;100097.34;4957306;28;20051;-66
2021/06/05 01:47:52;;;;;;;9.68;5.32;;;;;;;13.93;73.88;100095.56;4975861;28;20489;-66
2021/06/05 01:50:23;;;;;;;7.47;5.00;;;;;;;14.08;73.25;100090.34;4975497;28;20101;-66
2021/06/05 01:52:54;;;;;;;9.90;4.75;;;;;;;14.08;73.09;100091.16;4974641;28;20110;-68
2021/06/05 01:55:28;;;;;;;9.57;4.93;;;;;;;13.95;73.03;100104.09;4973984;28;20456;-63
2021/06/05 01:58:12;;;;;;;11.68;4.95;;;;;;;13.86;73.30;100102.47;4975427;28;20051;-65
2021/06/05 02:01:01;;;;;;;7.93;4.65;;;;;;;13.76;73.54;100097.41;4970212;28;20058;-63
2021/06/05 02:03:37;;;;;;;7.50;4.57;;;;;;;13.55;73.64;100100.97;4973272;28;20057;-66
2021/06/05 02:06:22;;;;;;;8.18;4.93;;;;;;;13.27;74.02;100097.69;4975272;28;20043;-64
2021/06/05 02:08:54;;;;;;;8.65;4.80;;;;;;;13.12;74.54;100087.53;4974542;28;20506;-63
2021/06/05 02:11:32;;;;;;;8.32;4.88;;;;;;;13.24;75.07;100092.59;4960114;28;20054;-63
2021/06/05 02:14:13;;;;;;;9.88;4.93;;;;;;;13.22;75.14;100094.31;4974350;28;20499;-66
2021/06/05 02:16:52;;;;;;;9.95;4.75;;;;;;;13.13;75.03;100096.06;4961100;28;20078;-63
2021/06/05 02:19:27;;;;;;;8.63;4.85;;;;;;;13.16;75.34;100098.59;4966236;28;20035;-63
2021/06/05 02:22:24;;;;;;;7.00;4.72;;;;;;;13.11;75.67;100084.97;4977174;28;20050;-63
2021/06/05 02:25:01;;;;;;;7.15;4.95;;;;;;;13.15;75.67;100090.06;4972105;28;20050;-64
2021/06/05 02:27:36;;;;;;;7.00;4.60;;;;;;;13.27;75.99;100082.31;4977181;28;20090;-63
2021/06/05 02:30:18;;;;;;;8.20;5.03;;;;;;;13.40;75.52;100073.72;4957606;28;20126;-63
2021/06/05 02:32:49;;;;;;;12.63;4.88;;;;;;;13.40;75.34;100089.09;4957160;28;20076;-64
2021/06/05 02:35:32;;;;;;;6.93;4.47;;;;;;;13.47;75.15;100087.34;4975101;28;20126;-63
2021/06/05 02:38:08;;;;;;;6.57;4.68;;;;;;;13.42;74.97;100082.25;4973828;28;20043;-64
2021/06/05 02:40:43;;;;;;;6.80;4.38;;;;;;;13.32;75.00;100074.59;4974062;28;20595;-63
2021/06/05 02:43:21;;;;;;;9.68;4.68;;;;;;;13.34;75.29;100078.84;4975246;28;20046;-63
2021/06/05 02:46:01;;;;;;;7.55;4.82;;;;;;;13.19;75.03;100071.28;4977336;28;20109;-63
2021/06/05 02:48:45;;;;;;;6.68;5.07;;;;;;;13.14;75.36;100065.31;4958521;28;20051;-64
2021/06/05 02:51:23;;;;;;;7.72;5.45;;;;;;;13.24;75.67;100056.72;4973262;28;20046;-64
2021/06/05 02:53:56;;;;;;;7.20;5.13;;;;;;;13.22;75.57;100053.28;4974843;28;20051;-70
2021/06/05 02:56:29;;;;;;;9.05;4.97;;;;;;;13.18;75.44;100041.34;4976288;28;20090;-64
2021/06/05 02:59:03;;;;;;;11.75;5.68;;;;;;;13.14;75.60;100037.13;4974325;28;20046;-63
2021/06/05 03:01:42;;;;;;;7.72;5.13;;;;;;;13.17;75.58;100049.91;4974900;28;20054;-64
2021/06/05 03:04:13;;;;;;;14.02;5.20;;;;;;;13.01;75.84;100043.13;4956333;28;20066;-64
2021/06/05 03:06:48;;;;;;;8.65;5.55;;;;;;;13.11;76.13;100044.81;4974785;28;20043;-64
2021/06/05 03:09:22;;;;;;;7.97;5.60;;;;;;;13.06;76.03;100038.84;4974133;28;20485;-64
2021/06/05 03:11:53;;;;;;;10.30;5.80;;;;;;;12.99;76.11;100041.41;4969260;28;20050;-64
2021/06/05 03:14:45;;;;;;;8.27;5.00;;;;;;;13.07;76.54;100048.25;4957232;28;20062;-63
2021/06/05 03:17:16;;;;;;;8.10;5.50;;;;;;;13.11;76.37;100043.97;4952331;28;20086;-63
2021/06/05 03:19:49;;;;;;;10.80;6.10;;;;;;;13.26;76.48;100042.19;4954645;28;20623;-63
2021/06/05 03:22:22;;;;;;;7.72;5.28;;;;;;;13.44;75.99;100039.47;4952840;28;20413;-66
2021/06/05 03:24:58;;;;;;;8.68;5.55;;;;;;;13.57;75.14;100049.66;4954524;28;20159;-66
2021/06/05 03:27:31;;;;;;;7.10;4.78;;;;;;;13.64;75.20;100041.06;4955096;29;20047;-65
2021/06/05 03:30:00;;;;;;;8.03;4.10;;;;;;;13.68;75.02;100037.59;4954198;28;20075;-63
2021/06/05 03:32:40;;;;;;;8.30;5.15;;;;;;;13.72;74.83;100041.88;4937144;29;20309;-63
2021/06/05 03:35:11;;;;;;;8.68;5.22;;;;;;;13.74;74.43;100047.84;4953284;28;20239;-63
2021/06/05 03:37:41;;;;;;;8.50;4.93;;;;;;;13.77;74.60;100047.81;4954405;29;20087;-69
2021/06/05 03:40:18;;;;;;;9.30;5.35;;;;;;;13.63;74.55;100049.63;4954878;28;20051;-66
2021/06/05 03:42:50;;;;;;;9.32;5.25;;;;;;;13.61;74.80;100056.47;4950871;28;20054;-66
2021/06/05 03:45:27;;;;;;;8.48;4.82;;;;;;;13.74;74.59;100043.56;4938254;29;20063;-63
2021/06/05 03:48:00;;;;;;;9.20;5.25;;;;;;;13.76;74.31;100035.84;4951060;28;20560;-70
2021/06/05 03:50:36;;;;;;;12.15;6.10;;;;;;;13.80;74.68;100043.50;4954118;28;20066;-64
2021/06/05 03:53:10;;;;;;;7.40;4.75;;;;;;;14.07;74.41;100042.41;4964349;28;20502;-64
2021/06/05 03:55:41;;;;;;;9.02;4.90;;;;;;;14.39;73.77;100040.44;4973540;28;20047;-64
2021/06/05 03:58:13;;;;;;;7.15;5.47;;;;;;;14.52;73.50;100046.25;4975759;28;20393;-63
2021/06/05 04:00:46;;;;;;;8.25;5.68;;;;;;;14.60;73.42;100039.34;4975626;28;20094;-63
2021/06/05 04:03:17;;;;;;;8.15;5.72;;;;;;;14.82;73.31;100039.94;4973092;28;20054;-63
2021/06/05 04:05:51;;;;;;;6.70;4.93;;;;;;;15.11;72.43;100048.13;4975510;28;20047;-63
2021/06/05 04:08:23;;;;;;;7.78;5.15;;;;;;;15.39;71.88;100040.03;4974200;28;20105;-65
2021/06/05 04:10:55;;;;;;;7.60;4.97;;;;;;;15.62;70.45;100042.25;4973387;28;20050;-65
2021/06/05 04:13:27;;;;;;;7.55;5.32;;;;;;;15.69;69.90;100038.72;4973217;28;20125;-65
2021/06/05 04:16:00;;;;;;;7.38;5.22;;;;;;;15.77;69.05;100036.88;4974123;28;20047;-65
2021/06/05 04:18:36;;;;;;;8.15;5.15;;;;;;;15.89;68.55;100040.97;4973315;28;20129;-63
2021/06/05 04:21:07;;;;;;;9.40;5.18;;;;;;;15.99;68.61;100048.53;4973019;28;20053;-63
2021/06/05 04:23:37;;;;;;;8.40;5.47;;;;;;;16.12;67.67;100045.75;4973432;28;20047;-63
2021/06/05 04:26:06;;;;;;;7.55;5.53;;;;;;;16.25;67.60;100054.94;4973179;28;20461;-66
2021/06/05 04:28:39;;;;;;;7.95;5.50;;;;;;;16.38;67.47;100051.28;4954698;29;20047;-65
2021/06/05 04:31:10;;;;;;;7.57;5.32;;;;;;;16.54;66.76;100045.00;4972231;28;20482;-65
2021/06/05 04:33:44;;;;;;;8.20;5.43;;;;;;;16.68;66.71;100045.56;4973902;28;20039;-63
2021/06/05 04:36:17;;;;;;;7.63;4.90;;;;;;;16.87;66.54;100054.66;4974363;28;20054;-63
2021/06/05 04:38:47;;;;;;;8.80;5.63;;;;;;;17.00;66.22;100043.22;4971141;28;20097;-63
2021/06/05 04:41:19;;;;;;;7.50;5.53;;;;;;;17.25;65.80;100043.53;4971825;28;20113;-63
2021/06/05 04:43:50;;;;;;;7.18;4.97;;;;;;;17.42;65.05;100037.09;4971429;28;20057;-65
2021/06/05 04:46:19;;;;;;;;;;;;;;;17.58;64.09;100031.63;4975429;28;20054;-63
2021/06/05 04:48:50;;;;;;;7.22;4.80;;;;;;;17.71;63.71;100028.72;4972996;28;19922;-65
2021/06/05 04:51:23;;;;;;;7.38;4.65;;;;;;;17.86;62.94;100032.66;4969932;28;20077;-65
2021/06/05 04:53:55;;;;;;;7.03;4.70;;;;;;;18.07;62.62;100026.94;4973147;28;20086;-65
2021/06/05 04:56:37;;;;;;;7.80;4.78;;;;;;;18.30;62.06;100018.59;4976719;28;20062;-63
2021/06/05 04:59:10;;;;;;;8.48;4.55;;;;;;;18.49;61.60;100031.03;4975925;28;20514;-64
2021/06/05 05:01:42;;;;;;;6.20;4.80;;;;;;;18.60;61.03;100029.00;4975818;28;20101;-63
2021/06/05 05:04:16;;;;;;;6.78;4.68;;;;;;;18.75;60.90;100025.13;4976768;28;20051;-64
2021/06/05 05:06:49;;;;;;;6.10;4.38;;;;;;;18.84;60.26;100016.25;4976976;28;20484;-63
2021/06/05 05:09:19;;;;;;;6.32;4.72;;;;;;;18.79;60.07;100018.16;4975472;28;20054;-64
2021/06/05 05:11:48;;;;;;;7.07;4.95;;;;;;;18.84;59.87;100017.09;4976670;28;20047;-63
2021/06/05 05:14:19;;;;;;;6.88;4.95;;;;;;;18.90;59.78;100016.09;4975007;28;20034;-63
2021/06/05 05:16:51;;;;;;;13.35;4.90;;;;;;;19.02;59.61;100020.91;4977741;28;20110;-65
2021/06/05 05:19:25;;;;;;;9.55;5.32;;;;;;;19.16;59.44;100013.56;4974805;28;20102;-65
2021/06/05 05:21:54;;;;;;;7.53;4.85;;;;;;;19.32;59.36;100015.63;4975507;28;20054;-64
2021/06/05 05:24:27;;;;;;;7.18;4.60;;;;;;;19.31;59.18;100015.69;4975706;28;20493;-65
2021/06/05 05:26:59;;;;;;;7.18;4.80;;;;;;;19.36;58.92;100019.03;4976814;28;20126;-65
2021/06/05 05:29:31;;;;;;;6.97;4.90;;;;;;;19.50;58.66;100022.03;4978376;28;20515;-64
2021/06/05 05:32:04;;;;;;;8.40;4.82;;;;;;;19.69;58.53;100025.72;4973394;28;20043;-65
2021/06/05 05:34:41;;;;;;;7.70;4.63;;;;;;;19.69;58.23;100025.72;4975399;28;20571;-65
2021/06/05 05:37:11;;;;;;;8.30;5.30;;;;;;;19.60;58.30;100023.44;4976799;28;20049;-65
2021/06/05 05:39:40;;;;;;;5.75;4.72;;;;;;;19.29;58.73;100027.84;4974731;28;20449;-65
2021/06/05 05:42:12;;;;;;;9.67;4.57;;;;;;;19.13;59.00;100029.19;4975588;28;20146;-64
2021/06/05 05:44:41;;;;;;;11.73;5.18;;;;;;;19.06;59.70;100027.66;4975725;28;20818;-65
2021/06/05 05:47:10;;;;;;;7.88;5.10;;;;;;;19.10;60.07;100026.72;4975811;28;20043;-65
2021/06/05 05:49:41;;;;;;;9.80;5.35;;;;;;;19.32;60.17;100023.41;4976018;28;20050;-65
2021/06/05 05:52:13;;;;;;;6.70;4.35;;;;;;;19.72;59.31;100027.38;4976785;28;20404;-64
2021/06/05 05:54:45;;;;;;;8.40;5.28;;;;;;;19.88;58.67;100021.63;4976296;28;20057;-64
2021/06/05 05:57:14;;;;;;;6.82;5.18;;;;;;;19.88;58.19;100020.78;4975930;28;20090;-63
2021/06/05 05:59:43;;;;;;;8.73;5.18;;;;;;;20.00;58.21;100016.06;4976835;28;20035;-65
2021/06/05 06:02:12;;;;;;;11.05;5.05;;;;;;;19.81;58.32;100022.75;4965864;28;20047;-64
2021/06/05 06:04:43;;;;;;;7.55;5.28;;;;;;;19.98;58.22;100012.66;4958723;29;20082;-64
2021/06/05 06:07:14;;;;;;;5.82;4.70;;;;;;;20.35;57.93;100014.84;4962465;28;20071;-64
2021/06/05 06:09:44;;;;;;;7.45;4.82;;;;;;;20.68;57.00;100020.59;4976368;28;20484;-64
2021/06/05 06:12:13;;;;;;;8.15;4.38;;;;;;;20.87;56.40;100026.81;4976559;28;20054;-64
2021/06/05 06:14:43;;;;;;;10.07;4.63;;;;;;;21.17;56.25;100024.81;4976809;28;20090;-64
2021/06/05 06:17:13;;;;;;;6.28;4.30;;;;;;;21.14;56.71;100020.59;4976576;28;20043;-63
2021/06/05 06:19:43;;;;;;;6.82;4.60;;;;;;;20.95;56.40;100032.53;4976086;28;20053;-64
2021/06/05 06:22:12;;;;;;;8.93;4.25;;;;;;;20.85;56.63;100022.56;4973948;28;20090;-64
2021/06/05 06:24:41;;;;;;;5.90;4.20;;;;;;;20.67;56.67;100019.75;4980641;28;20081;-63
2021/06/05 06:27:10;;;;;;;5.97;4.00;;;;;;;20.51;56.80;100022.94;4974923;28;20386;-63
2021/06/05 06:29:40;;;;;;;7.32;4.43;;;;;;;20.57;57.07;100022.72;4973687;28;20058;-64
2021/06/05 06:32:09;;;;;;;7.28;4.30;;;;;;;20.80;57.03;100030.53;4975176;28;20078;-66
2021/06/05 06:34:38;;;;;;;6.55;3.90;;;;;;;21.19;56.37;100029.06;4970747;28;20543;-63
2021/06/05 06:37:07;;;;;;;6.65;4.38;;;;;;;21.49;55.44;100019.22;4972825;28;20497;-66
2021/06/05 06:39:36;;;;;;;5.60;4.13;;;;;;;21.60;55.62;100023.97;4971234;28;20105;-63
2021/06/05 06:42:06;;;;;;;6.85;4.15;;;;;;;21.45;55.95;100024.63;4970174;28;20053;-65
2021/06/05 06:44:35;;;;;;;6.28;4.00;;;;;;;21.35;55.91;100022.34;4967435;28;20047;-64
2021/06/05 06:47:06;;;;;;;6.60;4.13;;;;;;;21.46;56.02;100026.28;4972265;28;20042;-64
2021/06/05 06:49:35;;;;;;;7.18;4.15;;;;;;;21.65;55.65;100022.03;4976136;28;20055;-64
2021/06/05 06:52:05;;;;;;;8.77;4.90;;;;;;;21.83;56.01;100010.91;4973066;28;20781;-65
2021/06/05 06:54:35;;;;;;;5.97;4.60;;;;;;;21.88;55.76;100019.41;4962779;28;20047;-64
2021/06/05 06:57:06;;;;;;;6.70;4.22;;;;;;;21.75;55.70;100018.16;4974690;28;20051;-64
2021/06/05 06:59:35;;;;;;;6.03;4.30;;;;;;;21.65;55.57;100011.66;4976737;28;20051;-64
2021/06/05 07:02:08;;;;;;;5.77;4.20;;;;;;;21.76;55.57;100014.69;4973817;28;20043;-64
2021/06/05 07:04:37;;;;;;;5.70;4.18;;;;;;;22.14;55.31;100011.34;4974556;28;20058;-63
2021/06/05 07:07:06;;;;;;;6.55;4.30;;;;;;;22.53;54.46;100011.38;4974475;28;20432;-64
2021/06/05 07:09:36;;;;;;;;;;;;;;;22.74;53.77;100004.41;4975566;28;20130;-63
2021/06/05 07:12:06;;;;;;;6.55;4.45;;;;;;;22.80;52.77;100001.50;4971854;28;20024;-64
2021/06/05 07:14:35;;;;;;;7.30;4.50;;;;;;;23.02;52.11;100004.81;4972032;28;20102;-65
2021/06/05 07:17:07;;;;;;;6.05;4.32;;;;;;;23.21;51.42;100001.28;4975670;28;20090;-63
2021/06/05 07:19:36;;;;;;;7.90;4.40;;;;;;;23.45;51.06;99991.50;4973251;28;20572;-63
2021/06/05 07:22:05;;;;;;;4.82;3.40;;;;;;;23.50;51.50;99994.72;4974929;28;20055;-63
2021/06/05 07:24:36;;;;;;;7.00;4.28;;;;;;;23.57;50.63;100001.31;4966982;28;20433;-63
2021/06/05 07:27:06;;;;;;;7.25;4.30;;;;;;;23.59;50.26;99999.47;4956680;29;20047;-63
2021/06/05 07:29:39;;;;;;;6.00;3.92;;;;;;;23.56;49.91;100002.25;4956848;29;20390;-64
2021/06/05 07:32:15;;;;;;;5.80;4.05;;;;;;;23.70;49.94;99992.00;4956696;29;20138;-64
2021/06/05 07:34:44;;;;;;;5.65;4.22;;;;;;;23.71;50.42;99991.06;4956805;29;20067;-63
2021/06/05 07:37:20;;;;;;;6.72;4.60;;;;;;;23.66;50.60;99985.22;4956606;29;20489;-64
2021/06/05 07:39:50;;;;;;;6.07;4.20;;;;;;;23.79;50.19;99986.31;4956762;29;20125;-63
2021/06/05 07:42:23;;;;;;;6.78;4.30;;;;;;;24.07;49.86;99984.97;4956646;29;20043;-64
2021/06/05 07:44:55;;;;;;;9.10;4.18;;;;;;;24.29;49.27;99985.53;4955478;29;20055;-63
2021/06/05 07:47:27;;;;;;;6.80;4.55;;;;;;;24.36;48.55;99977.31;4956620;29;20051;-63
2021/06/05 07:49:56;;;;;;;6.63;3.88;;;;;;;24.56;48.63;99981.47;4956570;29;20524;-63
2021/06/05 07:52:28;;;;;;;7.60;4.28;;;;;;;24.79;47.93;99986.34;4956804;29;20159;-63
2021/06/05 07:55:02;;;;;;;5.45;3.80;;;;;;;24.62;45.68;99979.38;4956513;29;20063;-65
2021/06/05 07:57:34;;;;;;;6.10;4.30;;;;;;;24.50;45.96;99971.34;4956466;29;20066;-64
2021/06/05 08:00:10;;;;;;;5.28;3.65;;;;;;;24.65;44.44;99967.94;4956412;29;20061;-64
2021/06/05 08:02:42;;;;;;;5.38;3.47;;;;;;;24.52;44.34;99964.31;4956173;29;20051;-64
2021/06/05 08:05:13;;;;;;;6.43;3.58;;;;;;;24.32;44.95;99964.50;4956263;29;20055;-63
2021/06/05 08:07:45;;;;;;;5.70;3.55;;;;;;;24.28;45.10;99968.22;4956299;29;20066;-64
2021/06/05 08:10:23;;;;;;;7.18;3.25;;;;;;;24.44;44.55;99958.66;4956458;29;20118;-64
2021/06/05 08:12:55;;;;;;;4.78;2.92;;;;;;;24.63;42.50;99954.13;4956469;29;20114;-64
2021/06/05 08:15:29;;;;;;;4.90;3.30;;;;;;;24.74;41.85;99951.75;4956347;29;20055;-63
2021/06/05 08:18:01;;;;;;;6.15;3.38;;;;;;;24.58;42.43;99949.16;4955381;29;20526;-64
2021/06/05 08:20:36;;;;;;;7.90;3.55;;;;;;;24.72;43.14;99943.19;4955966;29;20051;-64
2021/06/05 08:23:09;;;;;;;4.93;3.08;;;;;;;24.91;43.63;99937.81;4955969;29;20485;-63
2021/06/05 08:25:43;;;;;;;4.57;2.97;;;;;;;24.96;42.15;99927.97;4955951;29;20118;-64
2021/06/05 08:28:13;;;;;;;4.80;2.80;;;;;;;25.07;42.61;99929.06;4955922;29;20054;-63
2021/06/05 08:30:44;;;;;;;8.10;3.33;;;;;;;25.11;41.48;99929.72;4955387;28;20050;-63
2021/06/05 08:33:14;;;;;;;7.22;3.03;;;;;;;25.30;42.13;99925.13;4955928;29;20143;-64
2021/06/05 08:35:46;;;;;;;6.30;3.17;;;;;;;25.29;42.89;99918.22;4956201;29;20055;-63
2021/06/05 08:38:19;;;;;;;4.57;2.90;;;;;;;25.52;42.52;99925.63;4955830;29;20520;-64
2021/06/05 08:41:41;;;;;;;4.82;2.88;;;;;;;25.65;42.44;99920.53;4955571;29;20039;-67
2021/06/05 08:44:16;;;;;;;4.35;2.90;;;;;;;25.35;41.79;99919.66;4955366;29;20449;-64
2021/06/05 08:46:52;;;;;;;4.65;3.08;;;;;;;25.49;41.48;99914.50;4955746;29;20081;-64
2021/06/05 08:49:27;;;;;;;4.57;2.97;;;;;;;25.63;41.62;99912.75;4955409;29;20070;-63
2021/06/05 08:52:05;;;;;;;4.97;3.03;;;;;;;25.82;41.79;99917.72;4955685;29;20055;-63
2021/06/05 08:54:45;;;;;;;9.25;3.75;;;;;;;26.17;41.87;99913.03;4955464;28;20126;-64
2021/06/05 08:57:31;;;;;;;6.43;3.00;;;;;;;26.53;42.74;99916.88;4955652;29;20457;-63
2021/06/05 09:00:15;;;;;;;5.05;3.20;;;;;;;26.44;41.92;99906.94;4956132;29;20059;-65
2021/06/05 09:02:49;;;;;;;7.10;3.25;;;;;;;26.40;41.70;99910.69;4955525;29;20059;-66
2021/06/05 09:05:24;;;;;;;4.93;3.10;;;;;;;26.30;41.47;99909.56;4955541;29;20091;-63
2021/06/05 09:07:56;;;;;;;6.07;3.33;;;;;;;26.20;40.91;99897.16;4955621;29;20055;-63
2021/06/05 09:10:30;;;;;;;4.72;3.55;;;;;;;25.95;42.06;99897.78;4955484;29;20055;-65
2021/06/05 09:13:04;;;;;;;4.40;3.30;;;;;;;25.82;42.94;99897.66;4955474;29;20051;-63
2021/06/05 09:15:36;;;;;;;5.25;3.38;;;;;;;25.85;42.95;99888.78;4955469;29;20556;-65
2021/06/05 09:18:47;;;;;;;6.20;3.42;;;;;;;26.09;42.86;99895.16;4954481;29;20055;-64
2021/06/05 09:21:26;;;;;;;4.60;3.25;;;;;;;26.21;42.28;99894.44;4955482;29;20082;-64
2021/06/05 09:24:19;;;;;;;4.63;3.40;;;;;;;26.67;41.76;99896.81;4955231;29;20043;-63
2021/06/05 09:27:03;;;;;;;4.85;3.33;;;;;;;26.74;41.19;99900.72;4955613;29;20069;-64
2021/06/05 09:29:51;;;;;;;4.60;3.33;;;;;;;26.45;41.16;99890.31;4955135;29;20055;-63
2021/06/05 09:32:25;;;;;;;5.35;3.50;;;;;;;26.63;40.90;99891.75;4955319;29;20051;-64
2021/06/05 09:35:14;;;;;;;8.10;3.40;;;;;;;26.69;41.10;99884.44;4955367;29;20482;-66
2021/06/05 09:37:48;;;;;;;5.03;3.55;;;;;;;26.90;42.16;99877.91;4955372;29;20064;-64
2021/06/05 09:40:24;;;;;;;6.07;3.88;;;;;;;26.83;42.40;99873.97;4955577;29;20109;-64
2021/06/05 09:43:14;;;;;;;5.50;4.05;;;;;;;27.00;41.62;99868.47;4957673;28;20102;-66
2021/06/05 09:46:10;;;;;;;8.10;3.80;;;;;;;27.09;40.98;99858.22;4958580;29;20035;-64
2021/06/05 09:48:42;;;;;;;7.15;3.38;;;;;;;27.32;41.33;99861.13;4958738;29;20493;-64
2021/06/05 09:51:29;;;;;;;5.45;3.35;;;;;;;27.42;41.40;99870.94;4958723;29;20489;-65
2021/06/05 09:54:08;;;;;;;5.13;3.47;;;;;;;27.39;41.43;99865.91;4958960;29;20442;-63
2021/06/05 09:56:39;;;;;;;8.60;4.00;;;;;;;27.72;41.54;99871.47;4958473;29;20055;-64
2021/06/05 09:59:19;;;;;;;6.32;3.75;;;;;;;27.75;40.41;99873.91;4958619;29;20109;-63
2021/06/05 10:02:00;;;;;;;5.55;3.50;;;;;;;27.46;39.55;99872.41;4958564;29;20090;-65
2021/06/05 10:04:35;;;;;;;4.97;3.40;;;;;;;27.26;39.82;99873.69;4958238;29;20142;-65
2021/06/05 10:07:25;;;;;;;6.00;3.60;;;;;;;26.95;40.94;99866.16;4958457;29;20047;-65
2021/06/05 10:10:01;;;;;;;6.97;3.85;;;;;;;26.97;40.86;99863.47;4958438;29;20445;-64
2021/06/05 10:12:37;;;;;;;5.57;3.60;;;;;;;27.27;41.34;99862.28;4958381;29;20077;-63
2021/06/05 10:15:13;;;;;;;4.85;3.78;;;;;;;27.53;41.88;99855.31;4958432;29;20494;-64
2021/06/05 10:17:54;;;;;;;5.22;3.50;;;;;;;27.95;41.26;99855.94;4957414;29;20055;-63
2021/06/05 10:20:39;;;;;;;7.80;3.92;;;;;;;27.48;42.59;99823.31;4958265;29;20051;-63
2021/06/05 10:23:12;;;;;;;5.88;3.60;;;;;;;27.17;42.72;99844.63;4958060;29;20387;-67
2021/06/05 10:25:47;;;;;;;5.68;3.58;;;;;;;27.40;41.68;99843.13;4958109;29;20061;-64
2021/06/05 10:28:22;;;;;;;6.13;3.80;;;;;;;27.29;40.75;99833.31;4958000;29;20047;-63
2021/06/05 10:30:54;;;;;;;5.05;3.38;;;;;;;27.47;40.94;99832.13;4958329;29;20051;-66
2021/06/05 10:33:40;;;;;;;5.35;3.63;;;;;;;27.68;40.23;99833.28;4957992;29;20070;-64
2021/06/05 10:36:16;;;;;;;5.78;3.85;;;;;;;27.53;40.88;99826.47;4579876;23;22799;-68
2021/06/05 10:38:48;;;;;;;5.95;3.55;;;;;;;27.60;40.22;99821.63;4997001;28;20069;-71
2021/06/05 10:41:20;;;;;;;4.55;3.15;;;;;;;28.01;40.32;99826.66;4996564;28;20058;-73
2021/06/05 10:43:51;;;;;;;4.00;3.10;;;;;;;28.31;39.48;99821.91;4996686;28;20054;-72
2021/06/05 10:46:49;;;;;;;4.65;3.58;;;;;;;28.40;39.55;99822.09;4996537;28;20058;-72
2021/06/05 10:49:31;;;;;;;3.83;3.10;;;;;;;28.22;39.87;99826.00;4991883;28;20066;-74
2021/06/05 10:52:11;;;;;;;6.30;3.40;;;;;;;28.30;39.18;99820.22;4996372;28;20078;-72
2021/06/05 10:54:47;;;;;;;;;;;;;;;28.68;38.53;99831.44;4995863;28;20076;-71
2021/06/05 10:57:38;;;;;;;6.22;3.50;;;;;;;28.78;39.34;99824.59;4978901;28;20336;-72
2021/06/05 11:00:44;;;;;;;5.47;3.30;;;;;;;28.91;39.06;99820.13;4978855;28;20088;-69
2021/06/05 11:03:37;;;;;;;6.60;3.60;;;;;;;29.11;39.22;99822.09;4995943;28;20056;-70
2021/06/05 11:06:20;;;;;;;6.40;3.78;;;;;;;29.04;37.95;99828.75;4996081;28;20381;-73
2021/06/05 11:08:55;;;;;;;8.00;3.80;;;;;;;29.08;37.15;99817.03;4996093;28;20062;-73
2021/06/05 11:11:40;;;;;;;5.97;3.35;;;;;;;28.81;37.29;99813.84;4995996;28;20408;-71
2021/06/05 11:14:57;;;;;;;6.47;3.95;;;;;;;29.07;37.96;99815.38;4995990;28;20101;-71
2021/06/05 11:17:30;;;;;;;5.30;3.90;;;;;;;29.15;37.10;99807.75;4983896;28;20089;-69
2021/06/05 11:20:30;;;;;;;6.05;3.72;;;;;;;29.05;38.55;99822.56;4995833;28;20393;-69
2021/06/05 11:23:15;;;;;;;5.32;3.58;;;;;;;28.96;38.39;99817.94;4995840;28;20169;-68
2021/06/05 11:25:50;;;;;;;5.63;3.53;;;;;;;28.92;37.68;99816.50;4996129;28;20058;-72
2021/06/05 11:28:45;;;;;;;6.97;3.53;;;;;;;29.07;38.59;99798.75;4995503;28;20506;-67
2021/06/05 11:31:34;;;;;;;7.50;3.88;;;;;;;28.59;38.79;99792.69;4995592;28;20050;-72
2021/06/05 11:34:07;;;;;;;6.85;3.53;;;;;;;28.40;39.19;99810.72;4995545;28;20137;-69
2021/06/05 11:36:43;;;;;;;5.18;3.60;;;;;;;27.87;39.71;99812.72;4994669;28;20089;-70
2021/06/05 11:39:37;;;;;;;7.28;3.40;;;;;;;27.60;40.27;99804.13;4995524;28;20492;-71
2021/06/05 11:42:53;;;;;;;6.50;3.75;;;;;;;27.71;40.80;99804.22;4995407;28;20438;-68
2021/06/05 11:45:54;;;;;;;6.35;3.60;;;;;;;27.62;40.98;99804.84;4995043;28;20054;-73
2021/06/05 11:48:38;;;;;;;5.72;3.10;;;;;;;27.86;40.05;99802.31;4978041;28;20046;-70
2021/06/05 11:51:39;;;;;;;5.50;3.60;;;;;;;28.22;39.21;99788.44;4995282;28;20050;-70
2021/06/05 11:54:21;;;;;;;6.53;3.55;;;;;;;28.18;40.68;99794.81;4944043;28;20400;-70
2021/06/05 11:56:57;;;;;;;4.97;3.35;;;;;;;28.45;40.46;99779.72;4995184;28;20389;-72
2021/06/05 11:59:39;;;;;;;5.50;3.45;;;;;;;28.94;39.80;99788.31;4995150;28;20050;-72
2021/06/05 12:02:11;;;;;;;5.80;4.00;;;;;;;29.29;39.84;99787.50;4995564;28;20136;-71
2021/06/05 12:04:45;;;;;;;6.07;3.22;;;;;;;29.32;38.65;99792.53;4994723;28;20061;-71
2021/06/05 12:07:27;;;;;;;4.28;3.05;;;;;;;29.29;39.22;99776.97;4994962;28;20121;-71